Terminal Aerodrome Forecast
Issued by NWS Pocatello, ID

Current Version | Previous Version | Text Only | Print | Product List | Glossary On
Versions: 1 2 3 4 5 6 7 8 9 10 11 12 13 14 15
000
FTUS45 KPIH 220500
TAFBYI
TAF
KBYI 220520Z 2206/2306 21008KT P6SM VCSH SCT025 BKN040
     FM220700 21012KT 6SM -SHRA SCT015 OVC030
     FM221100 22015KT 4SM -RA SCT010 OVC020
     FM221900 27015G25KT 5SM -SHRA SCT010 OVC020
     FM230000 25015G25KT P6SM VCSH BKN020=

USA.gov is the U.S. government's official web portal to all federal, state and local government web resources and services.